Terminal Aerodrome Forecast
Issued by NWS

Home | Current Version | Previous Version | Text Only | Print | Product List | Glossary On
Versions: 1 2 3 4 5 6 7 8 9 10 11 12 13 14 15 16 17 18 19 20 21 22
000
FTUS41 KGYX 270523
TAFLEB
TAF
KLEB 270523Z 2706/2806 VRB03KT 5SM BR OVC007
     FM271100 VRB03KT 4SM BR OVC035
     FM271400 VRB03KT P6SM OVC050
     FM280500 01005KT 6SM -SHSN OVC035=

USA.gov is the U.S. government's official web portal to all federal, state and local government web resources and services.